sensor_id;sensor_type;location;lat;lon;timestamp;pressure;altitude;pressure_sealevel;temperature;humidity
45523;BME280;31254;51.680;5.394;2022-09-09T00:02:11;100798.16;;;16.26;84.51
45523;BME280;31254;51.680;5.394;2022-09-09T00:04:51;100791.44;;;16.29;84.86
45523;BME280;31254;51.680;5.394;2022-09-09T00:10:16;100796.19;;;16.20;84.76
45523;BME280;31254;51.680;5.394;2022-09-09T00:12:54;100794.66;;;16.17;85.00
45523;BME280;31254;51.680;5.394;2022-09-09T00:15:29;100780.25;;;16.15;85.00
45523;BME280;31254;51.680;5.394;2022-09-09T00:20:55;100784.88;;;16.15;84.85
45523;BME280;31254;51.680;5.394;2022-09-09T00:23:31;100772.91;;;16.07;85.25
45523;BME280;31254;51.680;5.394;2022-09-09T00:26:08;100784.41;;;16.11;84.97
45523;BME280;31254;51.680;5.394;2022-09-09T00:31:20;100775.69;;;16.07;85.20
45523;BME280;31254;51.680;5.394;2022-09-09T00:33:50;100774.13;;;16.05;85.41
45523;BME280;31254;51.680;5.394;2022-09-09T00:36:23;100762.66;;;16.01;85.22
45523;BME280;31254;51.680;5.394;2022-09-09T00:38:57;100772.25;;;16.05;85.21
45523;BME280;31254;51.680;5.394;2022-09-09T00:43:57;100768.34;;;16.00;85.37
45523;BME280;31254;51.680;5.394;2022-09-09T00:46:41;100751.38;;;15.96;85.44
45523;BME280;31254;51.680;5.394;2022-09-09T00:57:35;100749.56;;;15.88;85.17
45523;BME280;31254;51.680;5.394;2022-09-09T01:02:39;100753.56;;;15.86;85.34
45523;BME280;31254;51.680;5.394;2022-09-09T01:05:13;100746.13;;;15.86;85.42
45523;BME280;31254;51.680;5.394;2022-09-09T01:07:47;100748.59;;;15.81;85.66
45523;BME280;31254;51.680;5.394;2022-09-09T01:10:26;100744.50;;;15.77;85.56
45523;BME280;31254;51.680;5.394;2022-09-09T01:12:58;100752.56;;;15.79;85.47
45523;BME280;31254;51.680;5.394;2022-09-09T01:15:30;100751.91;;;15.77;85.63
45523;BME280;31254;51.680;5.394;2022-09-09T01:18:04;100724.53;;;15.60;85.68
45523;BME280;31254;51.680;5.394;2022-09-09T01:27:01;100750.91;;;15.69;85.66
45523;BME280;31254;51.680;5.394;2022-09-09T01:29:15;100742.16;;;15.66;85.86
45523;BME280;31254;51.680;5.394;2022-09-09T01:32:35;100753.53;;;15.63;85.63
45523;BME280;31254;51.680;5.394;2022-09-09T01:34:50;100756.47;;;15.61;85.67
45523;BME280;31254;51.680;5.394;2022-09-09T01:37:17;100745.00;;;15.58;85.83
45523;BME280;31254;51.680;5.394;2022-09-09T01:39:44;100745.00;;;15.58;86.09
45523;BME280;31254;51.680;5.394;2022-09-09T01:42:13;100730.66;;;15.47;86.01
45523;BME280;31254;51.680;5.394;2022-09-09T01:44:43;100734.72;;;15.51;86.11
45523;BME280;31254;51.680;5.394;2022-09-09T01:47:10;100730.78;;;15.54;86.00
45523;BME280;31254;51.680;5.394;2022-09-09T01:49:36;100735.59;;;15.52;86.33
45523;BME280;31254;51.680;5.394;2022-09-09T01:52:03;100714.81;;;15.49;86.18
45523;BME280;31254;51.680;5.394;2022-09-09T01:54:31;100728.56;;;15.49;86.44
45523;BME280;31254;51.680;5.394;2022-09-09T01:57:31;100735.97;;;15.49;86.59
45523;BME280;31254;51.680;5.394;2022-09-09T02:00:06;100734.25;;;15.48;86.63
45523;BME280;31254;51.680;5.394;2022-09-09T02:05:40;100721.75;;;15.45;86.13
45523;BME280;31254;51.680;5.394;2022-09-09T02:08:19;100728.09;;;15.46;86.48
45523;BME280;31254;51.680;5.394;2022-09-09T02:10:52;100722.78;;;15.44;86.38
45523;BME280;31254;51.680;5.394;2022-09-09T02:13:24;100722.31;;;15.41;86.67
45523;BME280;31254;51.680;5.394;2022-09-09T02:18:52;100715.81;;;15.33;86.75
45523;BME280;31254;51.680;5.394;2022-09-09T02:21:23;100718.38;;;15.35;86.75
45523;BME280;31254;51.680;5.394;2022-09-09T02:23:52;100707.94;;;15.30;86.89
45523;BME280;31254;51.680;5.394;2022-09-09T02:26:20;100707.47;;;15.27;86.86
45523;BME280;31254;51.680;5.394;2022-09-09T02:28:49;100711.38;;;15.32;86.97
45523;BME280;31254;51.680;5.394;2022-09-09T02:31:21;100716.00;;;15.32;86.96
45523;BME280;31254;51.680;5.394;2022-09-09T02:33:55;100703.13;;;15.32;86.84
45523;BME280;31254;51.680;5.394;2022-09-09T02:36:28;100704.16;;;15.31;86.94
45523;BME280;31254;51.680;5.394;2022-09-09T02:38:56;100694.97;;;15.24;86.81
45523;BME280;31254;51.680;5.394;2022-09-09T02:41:35;100710.03;;;15.28;86.84
45523;BME280;31254;51.680;5.394;2022-09-09T02:44:08;100701.13;;;15.26;86.90
45523;BME280;31254;51.680;5.394;2022-09-09T02:52:05;100703.75;;;15.20;87.23
45523;BME280;31254;51.680;5.394;2022-09-09T02:54:34;100701.72;;;15.13;87.14
45523;BME280;31254;51.680;5.394;2022-09-09T02:57:10;100713.50;;;15.22;87.34
45523;BME280;31254;51.680;5.394;2022-09-09T02:59:38;100709.06;;;15.21;87.47
45523;BME280;31254;51.680;5.394;2022-09-09T03:02:08;100702.41;;;15.15;87.41
45523;BME280;31254;51.680;5.394;2022-09-09T03:04:38;100710.09;;;15.20;87.38
45523;BME280;31254;51.680;5.394;2022-09-09T03:07:05;100707.53;;;15.18;87.44
45523;BME280;31254;51.680;5.394;2022-09-09T03:09:31;100698.13;;;15.13;87.43
45523;BME280;31254;51.680;5.394;2022-09-09T03:12:04;100718.16;;;15.22;87.72
45523;BME280;31254;51.680;5.394;2022-09-09T03:14:30;100723.28;;;15.25;87.31
45523;BME280;31254;51.680;5.394;2022-09-09T03:16:57;100712.84;;;15.20;87.29
45523;BME280;31254;51.680;5.394;2022-09-09T03:19:27;100698.31;;;15.11;87.43
45523;BME280;31254;51.680;5.394;2022-09-09T03:21:54;100712.78;;;15.28;87.27
45523;BME280;31254;51.680;5.394;2022-09-09T03:24:20;100711.94;;;15.28;87.36
45523;BME280;31254;51.680;5.394;2022-09-09T03:26:51;100700.81;;;15.21;87.26
45523;BME280;31254;51.680;5.394;2022-09-09T03:29:22;100721.88;;;15.29;87.51
45523;BME280;31254;51.680;5.394;2022-09-09T03:31:48;100715.53;;;15.28;87.45
45523;BME280;31254;51.680;5.394;2022-09-09T03:34:15;100723.41;;;15.31;87.32
45523;BME280;31254;51.680;5.394;2022-09-09T03:36:41;100713.44;;;15.30;87.48
45523;BME280;31254;51.680;5.394;2022-09-09T03:39:08;100714.44;;;15.38;87.21
45523;BME280;31254;51.680;5.394;2022-09-09T03:41:35;100723.34;;;15.40;87.47
45523;BME280;31254;51.680;5.394;2022-09-09T03:44:07;100718.69;;;15.40;87.22
45523;BME280;31254;51.680;5.394;2022-09-09T03:46:33;100722.50;;;15.39;87.40
45523;BME280;31254;51.680;5.394;2022-09-09T03:49:02;100716.81;;;15.41;87.44
45523;BME280;31254;51.680;5.394;2022-09-09T03:51:29;100706.66;;;15.41;87.25
45523;BME280;31254;51.680;5.394;2022-09-09T03:53:55;100711.78;;;15.44;87.22
45523;BME280;31254;51.680;5.394;2022-09-09T03:56:24;100712.63;;;15.45;87.56
45523;BME280;31254;51.680;5.394;2022-09-09T03:58:51;100706.66;;;15.41;87.72
45523;BME280;31254;51.680;5.394;2022-09-09T04:01:20;100703.78;;;15.34;87.52
45523;BME280;31254;51.680;5.394;2022-09-09T04:03:49;100703.06;;;15.41;87.63
45523;BME280;31254;51.680;5.394;2022-09-09T04:06:16;100697.28;;;15.35;87.79
45523;BME280;31254;51.680;5.394;2022-09-09T04:08:44;100693.84;;;15.33;87.90
45523;BME280;31254;51.680;5.394;2022-09-09T04:11:11;100698.66;;;15.31;87.99
45523;BME280;31254;51.680;5.394;2022-09-09T04:13:40;100705.56;;;15.27;88.01
45523;BME280;31254;51.680;5.394;2022-09-09T04:16:09;100692.00;;;15.26;88.25
45523;BME280;31254;51.680;5.394;2022-09-09T04:18:39;100706.78;;;15.25;88.27
45523;BME280;31254;51.680;5.394;2022-09-09T04:21:06;100699.94;;;15.21;88.26
45523;BME280;31254;51.680;5.394;2022-09-09T04:23:35;100703.94;;;15.18;88.70
45523;BME280;31254;51.680;5.394;2022-09-09T04:26:05;100704.59;;;15.20;88.28
45523;BME280;31254;51.680;5.394;2022-09-09T04:28:34;100696.72;;;15.17;88.52
45523;BME280;31254;51.680;5.394;2022-09-09T04:31:06;100704.59;;;15.20;88.61
45523;BME280;31254;51.680;5.394;2022-09-09T04:33:35;100695.22;;;15.14;88.80
45523;BME280;31254;51.680;5.394;2022-09-09T04:36:06;100702.41;;;15.15;88.40
45523;BME280;31254;51.680;5.394;2022-09-09T04:38:38;100698.56;;;15.25;88.44
45523;BME280;31254;51.680;5.394;2022-09-09T04:41:05;100690.13;;;15.26;88.40
45523;BME280;31254;51.680;5.394;2022-09-09T04:43:32;100691.16;;;15.25;88.20
45523;BME280;31254;51.680;5.394;2022-09-09T04:45:59;100690.69;;;15.22;88.59
45523;BME280;31254;51.680;5.394;2022-09-09T04:48:28;100684.41;;;15.13;88.75
45523;BME280;31254;51.680;5.394;2022-09-09T04:51:00;100698.44;;;15.18;88.73
45523;BME280;31254;51.680;5.394;2022-09-09T04:53:27;100691.41;;;15.15;88.88
45523;BME280;31254;51.680;5.394;2022-09-09T04:56:03;100675.75;;;15.16;89.25
45523;BME280;31254;51.680;5.394;2022-09-09T04:58:30;100684.69;;;15.18;89.06
45523;BME280;31254;51.680;5.394;2022-09-09T05:01:23;100683.34;;;15.14;89.11
45523;BME280;31254;51.680;5.394;2022-09-09T05:03:53;100680.41;;;15.15;88.80
45523;BME280;31254;51.680;5.394;2022-09-09T05:06:21;100690.19;;;15.18;89.06
45523;BME280;31254;51.680;5.394;2022-09-09T05:08:48;100681.25;;;15.16;89.00
45523;BME280;31254;51.680;5.394;2022-09-09T05:11:23;100680.22;;;15.17;89.21
45523;BME280;31254;51.680;5.394;2022-09-09T05:13:50;100683.81;;;15.17;89.11
45523;BME280;31254;51.680;5.394;2022-09-09T05:16:18;100683.47;;;15.21;88.92
45523;BME280;31254;51.680;5.394;2022-09-09T05:18:45;100682.25;;;15.23;89.08
45523;BME280;31254;51.680;5.394;2022-09-09T05:21:19;100679.78;;;15.28;88.98
45523;BME280;31254;51.680;5.394;2022-09-09T05:23:46;100661.59;;;15.27;88.51
45523;BME280;31254;51.680;5.394;2022-09-09T05:26:17;100668.53;;;15.38;88.49
45523;BME280;31254;51.680;5.394;2022-09-09T05:28:44;100671.75;;;15.42;88.52
45523;BME280;31254;51.680;5.394;2022-09-09T05:31:12;100665.44;;;15.41;88.59
45523;BME280;31254;51.680;5.394;2022-09-09T05:33:43;100655.97;;;15.44;88.65
45523;BME280;31254;51.680;5.394;2022-09-09T05:36:14;100648.38;;;15.46;88.47
45523;BME280;31254;51.680;5.394;2022-09-09T05:38:41;100654.25;;;15.58;88.27
45523;BME280;31254;51.680;5.394;2022-09-09T05:41:11;100666.06;;;15.66;88.30
45523;BME280;31254;51.680;5.394;2022-09-09T05:43:40;100660.31;;;15.76;87.77
45523;BME280;31254;51.680;5.394;2022-09-09T05:46:12;100655.75;;;15.83;87.42
45523;BME280;31254;51.680;5.394;2022-09-09T05:48:43;100664.00;;;15.98;86.94
45523;BME280;31254;51.680;5.394;2022-09-09T05:51:15;100677.56;;;16.15;86.42
45523;BME280;31254;51.680;5.394;2022-09-09T05:53:45;100676.22;;;16.25;86.04
45523;BME280;31254;51.680;5.394;2022-09-09T05:56:15;100691.31;;;16.44;85.54
45523;BME280;31254;51.680;5.394;2022-09-09T05:58:49;100683.19;;;16.58;85.14
45523;BME280;31254;51.680;5.394;2022-09-09T06:01:21;100685.78;;;16.81;84.36
45523;BME280;31254;51.680;5.394;2022-09-09T06:03:51;100685.00;;;18.02;79.75
45523;BME280;31254;51.680;5.394;2022-09-09T06:06:30;100679.06;;;19.28;75.18
45523;BME280;31254;51.680;5.394;2022-09-09T06:08:58;100682.66;;;19.02;75.60
45523;BME280;31254;51.680;5.394;2022-09-09T06:11:30;100685.47;;;18.60;77.49
45523;BME280;31254;51.680;5.394;2022-09-09T06:14:01;100684.91;;;18.30;78.87
45523;BME280;31254;51.680;5.394;2022-09-09T06:16:31;100685.19;;;18.00;79.89
45523;BME280;31254;51.680;5.394;2022-09-09T06:19:04;100694.75;;;17.76;80.95
45523;BME280;31254;51.680;5.394;2022-09-09T06:21:34;100687.47;;;17.68;81.39
45523;BME280;31254;51.680;5.394;2022-09-09T06:24:01;100694.91;;;17.68;81.27
45523;BME280;31254;51.680;5.394;2022-09-09T06:26:33;100693.47;;;17.72;81.34
45523;BME280;31254;51.680;5.394;2022-09-09T06:29:03;100691.41;;;17.81;81.07
45523;BME280;31254;51.680;5.394;2022-09-09T06:31:34;100695.88;;;17.82;80.93
45523;BME280;31254;51.680;5.394;2022-09-09T06:34:07;100684.50;;;17.70;81.56
45523;BME280;31254;51.680;5.394;2022-09-09T06:36:36;100676.34;;;17.55;81.97
45523;BME280;31254;51.680;5.394;2022-09-09T06:39:04;100682.84;;;17.47;82.54
45523;BME280;31254;51.680;5.394;2022-09-09T06:41:34;100686.94;;;17.51;83.25
45523;BME280;31254;51.680;5.394;2022-09-09T06:44:00;100671.28;;;17.59;82.46
45523;BME280;31254;51.680;5.394;2022-09-09T06:46:29;100671.44;;;17.79;81.70
45523;BME280;31254;51.680;5.394;2022-09-09T06:48:57;100673.47;;;17.92;80.66
45523;BME280;31254;51.680;5.394;2022-09-09T06:51:28;100679.75;;;18.69;78.71
45523;BME280;31254;51.680;5.394;2022-09-09T06:54:00;100675.47;;;19.28;75.95
45523;BME280;31254;51.680;5.394;2022-09-09T06:56:34;100677.16;;;19.22;76.24
45523;BME280;31254;51.680;5.394;2022-09-09T06:59:06;100665.31;;;20.86;70.49
45523;BME280;31254;51.680;5.394;2022-09-09T07:01:38;100674.81;;;22.59;64.70
45523;BME280;31254;51.680;5.394;2022-09-09T07:04:07;100663.59;;;24.57;58.68
45523;BME280;31254;51.680;5.394;2022-09-09T07:06:37;100660.88;;;26.21;54.52
45523;BME280;31254;51.680;5.394;2022-09-09T07:09:12;100657.69;;;26.35;54.10
45523;BME280;31254;51.680;5.394;2022-09-09T07:11:44;100665.00;;;25.63;55.36
45523;BME280;31254;51.680;5.394;2022-09-09T07:14:14;100671.88;;;24.80;57.84
45523;BME280;31254;51.680;5.394;2022-09-09T07:16:41;100669.97;;;23.81;60.64
45523;BME280;31254;51.680;5.394;2022-09-09T07:19:11;100667.94;;;23.88;60.64
45523;BME280;31254;51.680;5.394;2022-09-09T07:21:42;100669.16;;;22.85;63.18
45523;BME280;31254;51.680;5.394;2022-09-09T07:24:11;100670.06;;;22.30;65.01
45523;BME280;31254;51.680;5.394;2022-09-09T07:26:39;100654.69;;;21.90;65.85
45523;BME280;31254;51.680;5.394;2022-09-09T07:29:07;100673.47;;;21.37;67.69
45523;BME280;31254;51.680;5.394;2022-09-09T07:31:38;100654.34;;;20.97;68.64
45523;BME280;31254;51.680;5.394;2022-09-09T07:34:05;100665.44;;;20.59;70.13
45523;BME280;31254;51.680;5.394;2022-09-09T07:36:33;100656.69;;;20.55;70.45
45523;BME280;31254;51.680;5.394;2022-09-09T07:39:08;100663.13;;;20.42;70.26
45523;BME280;31254;51.680;5.394;2022-09-09T07:41:45;100664.34;;;20.08;71.72
45523;BME280;31254;51.680;5.394;2022-09-09T07:44:23;100671.63;;;19.69;72.75
45523;BME280;31254;51.680;5.394;2022-09-09T07:46:51;100678.00;;;19.49;73.69
45523;BME280;31254;51.680;5.394;2022-09-09T07:49:20;100667.81;;;19.36;73.92
45523;BME280;31254;51.680;5.394;2022-09-09T07:51:56;100678.00;;;19.56;73.22
45523;BME280;31254;51.680;5.394;2022-09-09T07:54:23;100672.47;;;19.56;73.30
45523;BME280;31254;51.680;5.394;2022-09-09T07:56:53;100673.56;;;19.55;73.23
45523;BME280;31254;51.680;5.394;2022-09-09T07:59:19;100674.63;;;19.54;73.30
45523;BME280;31254;51.680;5.394;2022-09-09T08:01:49;100672.03;;;19.66;73.02
45523;BME280;31254;51.680;5.394;2022-09-09T08:04:21;100675.84;;;19.98;72.08
45523;BME280;31254;51.680;5.394;2022-09-09T08:06:51;100675.13;;;20.36;71.01
45523;BME280;31254;51.680;5.394;2022-09-09T08:09:24;100672.03;;;22.04;65.19
45523;BME280;31254;51.680;5.394;2022-09-09T08:11:56;100674.34;;;22.07;65.11
45523;BME280;31254;51.680;5.394;2022-09-09T08:14:29;100680.47;;;21.72;66.00
45523;BME280;31254;51.680;5.394;2022-09-09T08:16:59;100680.97;;;21.05;67.93
45523;BME280;31254;51.680;5.394;2022-09-09T08:19:26;100683.31;;;20.63;69.81
45523;BME280;31254;51.680;5.394;2022-09-09T08:21:55;100687.94;;;20.24;70.17
45523;BME280;31254;51.680;5.394;2022-09-09T08:24:22;100678.59;;;20.05;70.93
45523;BME280;31254;51.680;5.394;2022-09-09T08:26:49;100686.94;;;19.98;71.60
45523;BME280;31254;51.680;5.394;2022-09-09T08:29:17;100686.72;;;19.93;71.65
45523;BME280;31254;51.680;5.394;2022-09-09T08:31:49;100689.50;;;19.93;71.81
45523;BME280;31254;51.680;5.394;2022-09-09T08:34:19;100687.19;;;19.83;72.08
45523;BME280;31254;51.680;5.394;2022-09-09T08:36:48;100684.22;;;19.78;72.25
45523;BME280;31254;51.680;5.394;2022-09-09T08:39:18;100690.78;;;19.77;72.08
45523;BME280;31254;51.680;5.394;2022-09-09T08:50:29;100695.47;;;19.63;72.49
45523;BME280;31254;51.680;5.394;2022-09-09T08:55:41;100708.66;;;19.48;72.77
45523;BME280;31254;51.680;5.394;2022-09-09T08:58:13;100703.75;;;19.43;73.01
45523;BME280;31254;51.680;5.394;2022-09-09T09:03:23;100707.34;;;19.37;72.93
45523;BME280;31254;51.680;5.394;2022-09-09T09:06:00;100707.34;;;19.30;73.41
45523;BME280;31254;51.680;5.394;2022-09-09T09:08:49;100703.31;;;19.20;73.56
45523;BME280;31254;51.680;5.394;2022-09-09T09:11:18;100714.38;;;19.20;73.40
45523;BME280;31254;51.680;5.394;2022-09-09T09:13:50;100711.38;;;19.14;73.68
45523;BME280;31254;51.680;5.394;2022-09-09T09:16:38;100709.69;;;19.27;73.48
45523;BME280;31254;51.680;5.394;2022-09-09T09:19:15;100720.56;;;19.42;73.10
45523;BME280;31254;51.680;5.394;2022-09-09T09:21:45;100717.38;;;19.45;72.83
45523;BME280;31254;51.680;5.394;2022-09-09T09:24:20;100712.47;;;19.40;72.91
45523;BME280;31254;51.680;5.394;2022-09-09T09:26:48;100720.75;;;19.33;73.17
45523;BME280;31254;51.680;5.394;2022-09-09T09:29:19;100721.19;;;19.30;73.20
45523;BME280;31254;51.680;5.394;2022-09-09T09:31:52;100698.41;;;19.15;73.17
45523;BME280;31254;51.680;5.394;2022-09-09T09:34:23;100721.81;;;19.26;73.24
45523;BME280;31254;51.680;5.394;2022-09-09T09:36:54;100714.59;;;19.31;72.84
45523;BME280;31254;51.680;5.394;2022-09-09T09:39:32;100719.91;;;19.26;73.13
45523;BME280;31254;51.680;5.394;2022-09-09T09:42:24;100712.25;;;19.28;73.01
45523;BME280;31254;51.680;5.394;2022-09-09T09:44:53;100722.03;;;19.24;73.29
45523;BME280;31254;51.680;5.394;2022-09-09T09:47:22;100717.56;;;19.16;73.63
45523;BME280;31254;51.680;5.394;2022-09-09T09:50:00;100720.31;;;19.10;74.09
45523;BME280;31254;51.680;5.394;2022-09-09T09:52:29;100729.44;;;19.04;74.52
45523;BME280;31254;51.680;5.394;2022-09-09T09:55:03;100719.63;;;18.94;74.79
45523;BME280;31254;51.680;5.394;2022-09-09T09:57:33;100727.28;;;18.86;75.08
45523;BME280;31254;51.680;5.394;2022-09-09T10:00:13;100711.91;;;18.83;75.52
45523;BME280;31254;51.680;5.394;2022-09-09T10:02:44;100716.59;;;18.82;75.57
45523;BME280;31254;51.680;5.394;2022-09-09T10:05:31;100719.78;;;18.79;75.59
45523;BME280;31254;51.680;5.394;2022-09-09T10:22:39;100727.28;;;18.86;76.17
45523;BME280;31254;51.680;5.394;2022-09-09T10:36:27;100735.72;;;18.77;77.50
45523;BME280;31254;51.680;5.394;2022-09-09T10:39:30;100736.97;;;18.75;77.87
45523;BME280;31254;51.680;5.394;2022-09-09T10:42:06;100737.91;;;18.89;77.59
45523;BME280;31254;51.680;5.394;2022-09-09T10:49:56;100727.34;;;19.26;77.20
45523;BME280;31254;51.680;5.394;2022-09-09T10:55:20;100727.13;;;19.21;77.30
45523;BME280;31254;51.680;5.394;2022-09-09T10:57:53;100717.56;;;19.23;77.45
45523;BME280;31254;51.680;5.394;2022-09-09T11:00:40;100705.69;;;19.43;76.92
45523;BME280;31254;51.680;5.394;2022-09-09T11:03:17;100717.59;;;19.70;76.15
45523;BME280;31254;51.680;5.394;2022-09-09T11:05:49;100711.66;;;19.80;75.86
45523;BME280;31254;51.680;5.394;2022-09-09T11:08:23;100713.78;;;19.78;75.72
45523;BME280;31254;51.680;5.394;2022-09-09T11:11:04;100718.03;;;19.73;75.88
45523;BME280;31254;51.680;5.394;2022-09-09T11:16:29;100719.75;;;19.88;75.63
45523;BME280;31254;51.680;5.394;2022-09-09T11:19:04;100718.25;;;19.92;76.23
45523;BME280;31254;51.680;5.394;2022-09-09T11:21:49;100721.41;;;20.09;75.25
45523;BME280;31254;51.680;5.394;2022-09-09T11:24:40;100718.22;;;20.12;74.77
45523;BME280;31254;51.680;5.394;2022-09-09T11:36:38;100718.00;;;20.00;75.64
45523;BME280;31254;51.680;5.394;2022-09-09T11:44:44;100718.25;;;19.85;76.37
45523;BME280;31254;51.680;5.394;2022-09-09T11:47:31;100716.75;;;20.03;75.85
45523;BME280;31254;51.680;5.394;2022-09-09T11:52:47;100711.97;;;20.37;75.01
45523;BME280;31254;51.680;5.394;2022-09-09T11:55:31;100710.72;;;20.26;74.94
45523;BME280;31254;51.680;5.394;2022-09-09T12:00:41;100715.03;;;20.08;75.78
45523;BME280;31254;51.680;5.394;2022-09-09T12:03:49;100712.91;;;20.11;75.99
45523;BME280;31254;51.680;5.394;2022-09-09T12:06:25;100713.13;;;20.09;75.94
45523;BME280;31254;51.680;5.394;2022-09-09T12:09:56;100710.31;;;20.16;75.64
45523;BME280;31254;51.680;5.394;2022-09-09T12:12:34;100714.19;;;20.01;75.43
45523;BME280;31254;51.680;5.394;2022-09-09T12:17:45;100704.63;;;19.97;76.55
45523;BME280;31254;51.680;5.394;2022-09-09T12:20:22;100708.41;;;20.16;75.92
45523;BME280;31254;51.680;5.394;2022-09-09T12:28:08;100711.06;;;21.02;73.57
45523;BME280;31254;51.680;5.394;2022-09-09T12:31:05;100709.97;;;21.09;73.83
45523;BME280;31254;51.680;5.394;2022-09-09T12:33:38;100704.88;;;21.06;73.61
45523;BME280;31254;51.680;5.394;2022-09-09T12:36:32;100696.72;;;21.11;73.15
45523;BME280;31254;51.680;5.394;2022-09-09T12:39:19;100706.06;;;21.17;73.32
45523;BME280;31254;51.680;5.394;2022-09-09T12:41:55;100697.94;;;21.22;72.32
45523;BME280;31254;51.680;5.394;2022-09-09T12:44:28;100700.88;;;21.27;72.22
45523;BME280;31254;51.680;5.394;2022-09-09T12:47:05;100708.03;;;21.42;72.48
45523;BME280;31254;51.680;5.394;2022-09-09T12:49:39;100697.25;;;21.59;71.91
45523;BME280;31254;51.680;5.394;2022-09-09T12:52:23;100691.63;;;21.65;70.97
45523;BME280;31254;51.680;5.394;2022-09-09T12:54:55;100692.94;;;21.63;71.28
45523;BME280;31254;51.680;5.394;2022-09-09T12:57:36;100686.22;;;21.45;71.59
45523;BME280;31254;51.680;5.394;2022-09-09T13:00:20;100689.56;;;21.29;72.58
45523;BME280;31254;51.680;5.394;2022-09-09T13:02:53;100689.56;;;21.29;72.27
45523;BME280;31254;51.680;5.394;2022-09-09T13:07:52;100682.63;;;21.13;72.45
45523;BME280;31254;51.680;5.394;2022-09-09T13:10:31;100687.69;;;21.23;71.89
45523;BME280;31254;51.680;5.394;2022-09-09T13:13:26;100680.56;;;21.33;71.88
45523;BME280;31254;51.680;5.394;2022-09-09T13:16:01;100689.63;;;21.47;71.30
45523;BME280;31254;51.680;5.394;2022-09-09T13:18:51;100670.28;;;21.66;70.85
45523;BME280;31254;51.680;5.394;2022-09-09T13:21:34;100673.09;;;21.84;70.12
45523;BME280;31254;51.680;5.394;2022-09-09T13:24:30;100677.06;;;22.14;69.57
45523;BME280;31254;51.680;5.394;2022-09-09T13:29:54;100677.88;;;22.39;68.19
45523;BME280;31254;51.680;5.394;2022-09-09T13:32:27;100679.53;;;22.22;68.38
45523;BME280;31254;51.680;5.394;2022-09-09T13:34:56;100673.28;;;22.08;68.80
45523;BME280;31254;51.680;5.394;2022-09-09T13:37:35;100675.97;;;21.96;68.81
45523;BME280;31254;51.680;5.394;2022-09-09T13:40:14;100667.94;;;21.88;69.02
45523;BME280;31254;51.680;5.394;2022-09-09T13:42:45;100668.56;;;21.90;68.81
45523;BME280;31254;51.680;5.394;2022-09-09T13:45:21;100668.44;;;21.78;68.76
45523;BME280;31254;51.680;5.394;2022-09-09T13:47:53;100673.47;;;21.69;69.27
45523;BME280;31254;51.680;5.394;2022-09-09T13:50:28;100666.88;;;21.64;69.36
45523;BME280;31254;51.680;5.394;2022-09-09T13:52:59;100674.03;;;21.53;69.44
45523;BME280;31254;51.680;5.394;2022-09-09T13:55:28;100666.25;;;21.36;69.88
45523;BME280;31254;51.680;5.394;2022-09-09T13:58:02;100662.09;;;21.21;70.43
45523;BME280;31254;51.680;5.394;2022-09-09T14:00:34;100664.94;;;21.14;70.92
45523;BME280;31254;51.680;5.394;2022-09-09T14:03:05;100676.28;;;21.06;70.64
45523;BME280;31254;51.680;5.394;2022-09-09T14:05:37;100669.47;;;21.02;70.71
45523;BME280;31254;51.680;5.394;2022-09-09T14:08:06;100667.66;;;21.21;70.31
45523;BME280;31254;51.680;5.394;2022-09-09T14:10:37;100669.94;;;21.55;70.14
45523;BME280;31254;51.680;5.394;2022-09-09T14:13:06;100667.09;;;21.87;68.70
45523;BME280;31254;51.680;5.394;2022-09-09T14:15:56;100655.75;;;22.07;67.82
45523;BME280;31254;51.680;5.394;2022-09-09T14:18:25;100659.94;;;22.17;67.65
45523;BME280;31254;51.680;5.394;2022-09-09T14:20:55;100653.53;;;22.16;67.70
45523;BME280;31254;51.680;5.394;2022-09-09T14:23:23;100652.75;;;22.09;68.20
45523;BME280;31254;51.680;5.394;2022-09-09T14:25:51;100664.97;;;22.08;68.07
45523;BME280;31254;51.680;5.394;2022-09-09T14:28:18;100661.38;;;22.01;68.26
45523;BME280;31254;51.680;5.394;2022-09-09T14:31:04;100657.22;;;21.91;68.22
45523;BME280;31254;51.680;5.394;2022-09-09T14:33:32;100655.03;;;21.75;68.93
45523;BME280;31254;51.680;5.394;2022-09-09T14:36:03;100658.84;;;21.55;69.01
45523;BME280;31254;51.680;5.394;2022-09-09T14:38:33;100660.00;;;21.41;69.51
45523;BME280;31254;51.680;5.394;2022-09-09T14:41:17;100659.38;;;21.39;69.77
45523;BME280;31254;51.680;5.394;2022-09-09T14:43:47;100668.53;;;21.46;69.16
45523;BME280;31254;51.680;5.394;2022-09-09T14:46:18;100662.66;;;21.61;68.50
45523;BME280;31254;51.680;5.394;2022-09-09T14:48:46;100662.19;;;21.64;68.65
45523;BME280;31254;51.680;5.394;2022-09-09T14:51:21;100649.69;;;21.55;68.51
45523;BME280;31254;51.680;5.394;2022-09-09T14:53:56;100662.53;;;21.49;68.53
45523;BME280;31254;51.680;5.394;2022-09-09T14:56:27;100665.81;;;21.33;69.02
45523;BME280;31254;51.680;5.394;2022-09-09T14:58:58;100670.47;;;21.14;69.63
45523;BME280;31254;51.680;5.394;2022-09-09T15:01:32;100665.22;;;20.99;69.47
45523;BME280;31254;51.680;5.394;2022-09-09T15:04:05;100673.63;;;20.86;70.30
45523;BME280;31254;51.680;5.394;2022-09-09T15:06:35;100689.91;;;20.75;70.07
45523;BME280;31254;51.680;5.394;2022-09-09T15:09:10;100695.03;;;20.58;70.99
45523;BME280;31254;51.680;5.394;2022-09-09T15:11:44;100706.84;;;20.40;71.88
45523;BME280;31254;51.680;5.394;2022-09-09T15:14:25;100711.16;;;20.16;73.18
45523;BME280;31254;51.680;5.394;2022-09-09T15:16:58;100696.31;;;19.90;74.27
45523;BME280;31254;51.680;5.394;2022-09-09T15:19:39;100689.94;;;19.70;75.07
45523;BME280;31254;51.680;5.394;2022-09-09T15:22:10;100685.69;;;19.54;75.44
45523;BME280;31254;51.680;5.394;2022-09-09T15:24:37;100709.91;;;19.39;75.98